createdAt,value
2023-01-04T08:42:39.798Z,6.50
2023-01-04T09:02:26.417Z,7.60
2023-01-04T09:10:10.119Z,7.40
2023-01-04T11:36:59.425Z,6.00
2023-01-04T11:42:04.431Z,6.30
2023-01-04T11:47:19.439Z,5.20
2023-01-04T11:52:28.907Z,4.90
2023-01-04T11:57:30.622Z,5.60
2023-01-04T12:03:00.325Z,6.10
2023-01-04T12:07:54.029Z,7.10
2023-01-04T12:12:59.615Z,5.70
2023-01-04T12:18:28.084Z,5.00
2023-01-04T12:23:30.712Z,5.00
2023-01-04T12:28:39.966Z,5.60
2023-01-04T12:33:41.679Z,4.30
2023-01-04T12:38:52.317Z,4.70
2023-01-04T12:43:54.021Z,5.20
2023-01-04T12:49:04.759Z,4.80
2023-01-04T12:54:23.902Z,5.20
2023-01-04T12:59:55.181Z,4.90
2023-01-04T13:10:51.609Z,6.50
2023-01-04T13:16:11.716Z,6.90
2023-01-04T13:21:33.199Z,6.70
2023-01-04T13:26:46.000Z,5.30
2023-01-04T13:31:55.656Z,4.50
2023-01-04T13:37:13.652Z,5.50
2023-01-04T13:42:32.379Z,5.90
2023-01-04T13:47:40.736Z,7.30
2023-01-04T13:52:58.353Z,5.90
2023-01-04T13:58:06.669Z,6.00
2023-01-04T14:03:29.818Z,7.40
2023-01-04T14:08:40.774Z,5.20
2023-01-04T14:13:48.130Z,4.20
2023-01-04T14:18:49.835Z,5.60
2023-01-04T14:23:51.480Z,4.90
2023-01-04T14:28:53.090Z,5.70
2023-01-04T14:33:55.214Z,5.30
2023-01-04T14:39:10.221Z,5.70
2023-01-04T14:44:16.198Z,7.10
2023-01-04T14:49:19.962Z,6.00
2023-01-04T14:54:25.348Z,6.10
2023-01-04T14:59:28.275Z,6.90
2023-01-04T15:04:30.197Z,8.00
2023-01-04T15:09:32.068Z,7.10
2023-01-04T15:14:34.463Z,8.10
2023-01-04T15:19:38.292Z,7.80
2023-01-04T15:24:40.210Z,7.60
2023-01-04T15:29:41.913Z,8.10
2023-01-04T15:34:47.010Z,7.70
2023-01-04T15:39:49.111Z,8.30
2023-01-04T15:44:50.739Z,8.00
2023-01-04T15:49:52.330Z,9.70
2023-01-04T15:54:54.009Z,9.30
2023-01-04T15:59:55.635Z,9.50
2023-01-04T16:04:57.247Z,6.20
2023-01-04T16:09:59.096Z,9.80
2023-01-04T16:15:01.095Z,10.40
2023-01-04T16:20:03.550Z,8.60
2023-01-04T16:25:11.326Z,8.80
2023-01-04T16:30:14.096Z,7.80
2023-01-04T16:35:15.866Z,9.70
2023-01-04T16:40:17.530Z,9.30
2023-01-04T16:45:19.519Z,9.30
2023-01-04T16:50:21.194Z,8.30
2023-01-04T16:55:24.285Z,9.60
2023-01-04T17:00:26.165Z,8.40
2023-01-04T17:05:27.799Z,7.40
2023-01-04T17:10:29.960Z,6.60
2023-01-04T17:15:42.942Z,7.10
2023-01-04T17:20:53.276Z,5.90
2023-01-04T17:26:00.017Z,6.10
2023-01-04T17:31:08.266Z,5.50
2023-01-04T17:36:12.798Z,7.60
2023-01-04T17:41:16.174Z,6.70
2023-01-04T17:46:23.202Z,5.40
2023-01-04T17:51:26.137Z,4.60
2023-01-04T17:56:29.847Z,5.50
2023-01-04T18:01:33.304Z,5.10
2023-01-04T18:06:36.987Z,5.70
2023-01-04T18:11:38.774Z,5.40
2023-01-04T18:16:57.016Z,5.20
2023-01-04T18:21:59.434Z,4.50
2023-01-04T18:27:20.887Z,5.20
2023-01-04T18:32:24.927Z,5.20
2023-01-04T18:37:26.656Z,3.50
2023-01-04T18:42:31.142Z,3.70
2023-01-04T18:47:33.065Z,4.90
2023-01-04T18:52:35.655Z,4.30
2023-01-04T18:57:38.391Z,5.10
2023-01-04T19:02:40.337Z,4.30
2023-01-04T19:07:42.128Z,4.90
2023-01-04T19:12:43.845Z,6.00
2023-01-04T19:17:45.554Z,4.90
2023-01-04T19:22:47.316Z,4.80
2023-01-04T19:27:49.000Z,5.10
2023-01-04T19:32:50.643Z,4.40
2023-01-04T19:37:52.332Z,4.90
2023-01-04T19:42:54.158Z,4.80
2023-01-04T19:47:56.059Z,4.00
2023-01-04T19:52:57.730Z,4.00
2023-01-04T19:57:59.576Z,5.00
2023-01-04T20:03:01.541Z,6.90
2023-01-04T20:08:03.472Z,5.40
2023-01-04T20:13:05.151Z,4.40
2023-01-04T20:18:11.930Z,5.60
2023-01-04T20:23:16.520Z,4.80
2023-01-04T20:28:20.250Z,3.80
2023-01-04T20:33:22.022Z,5.30
2023-01-04T20:38:23.921Z,5.60
2023-01-04T20:43:34.819Z,4.90
2023-01-04T20:48:36.609Z,4.80
2023-01-04T20:53:38.711Z,4.00
2023-01-04T20:58:40.539Z,5.30
2023-01-04T21:03:43.000Z,6.00
2023-01-04T21:08:45.774Z,6.30
2023-01-04T21:13:49.411Z,4.90
2023-01-04T21:18:51.051Z,5.70
2023-01-04T21:23:57.756Z,6.50
2023-01-04T21:28:59.885Z,5.90
2023-01-04T21:34:04.391Z,5.40
2023-01-04T21:39:08.533Z,5.20
2023-01-04T21:44:10.191Z,7.70
2023-01-04T21:49:12.629Z,4.70
2023-01-04T21:54:14.275Z,6.30
2023-01-04T21:59:16.493Z,6.90
2023-01-04T22:04:18.216Z,5.80
2023-01-04T22:09:21.193Z,4.90
2023-01-04T22:14:24.540Z,5.80
2023-01-04T22:19:26.672Z,4.70
2023-01-04T22:24:31.459Z,4.00
2023-01-04T22:29:38.296Z,5.10
2023-01-04T22:34:46.158Z,4.80
2023-01-04T22:39:47.820Z,4.60
2023-01-04T22:44:49.732Z,5.00
2023-01-04T22:49:51.422Z,3.80
2023-01-04T22:54:53.155Z,3.80
2023-01-04T22:59:54.870Z,3.60
2023-01-04T23:04:56.519Z,4.20
2023-01-04T23:09:58.321Z,3.80
2023-01-04T23:15:00.495Z,4.30
2023-01-04T23:20:05.338Z,5.30
2023-01-04T23:25:11.306Z,4.80
2023-01-04T23:30:14.889Z,3.90
2023-01-04T23:35:16.650Z,4.20
2023-01-04T23:40:18.344Z,4.70
2023-01-04T23:45:20.044Z,4.40
2023-01-04T23:50:22.230Z,4.00
2023-01-04T23:55:23.911Z,3.60
